sensor_id;sensor_type;location;lat;lon;timestamp;pressure;altitude;pressure_sealevel;temperature;humidity
32452;BME280;45528;52.102;5.242;2022-09-27T00:01:12;99293.0;;;17.09;62.88
32452;BME280;45528;52.102;5.242;2022-09-27T00:02:49;99300.0;;;17.09;62.58
32452;BME280;45528;52.102;5.242;2022-09-27T00:04:26;99309.0;;;17.03;63.03
32452;BME280;45528;52.102;5.242;2022-09-27T00:06:07;99316.0;;;17.03;63.03
32452;BME280;45528;52.102;5.242;2022-09-27T00:09:22;99320.0;;;17.03;63.05
32452;BME280;45528;52.102;5.242;2022-09-27T00:10:59;99321.0;;;17.05;63.03
32452;BME280;45528;52.102;5.242;2022-09-27T00:12:36;99321.0;;;17.02;63.12
32452;BME280;45528;52.102;5.242;2022-09-27T00:15:55;99317.0;;;17.09;63.1
32452;BME280;45528;52.102;5.242;2022-09-27T00:17:32;99319.0;;;17.11;62.95
32452;BME280;45528;52.102;5.242;2022-09-27T00:19:10;99317.0;;;17.18;62.78
32452;BME280;45528;52.102;5.242;2022-09-27T00:20:48;99315.0;;;17.18;62.57
32452;BME280;45528;52.102;5.242;2022-09-27T00:24:02;99313.0;;;17.16;62.46
32452;BME280;45528;52.102;5.242;2022-09-27T00:25:39;99313.0;;;17.12;62.7
32452;BME280;45528;52.102;5.242;2022-09-27T00:27:15;99312.0;;;17.04;62.86
32452;BME280;45528;52.102;5.242;2022-09-27T00:30:28;99312.0;;;17.05;62.99
32452;BME280;45528;52.102;5.242;2022-09-27T00:32:04;99311.0;;;17.11;62.58
32452;BME280;45528;52.102;5.242;2022-09-27T00:33:40;99309.0;;;17.03;62.92
32452;BME280;45528;52.102;5.242;2022-09-27T00:36:53;99312.0;;;17.02;62.71
32452;BME280;45528;52.102;5.242;2022-09-27T00:38:28;99310.0;;;16.98;62.65
32452;BME280;45528;52.102;5.242;2022-09-27T00:40:05;99309.0;;;16.9;62.64
32452;BME280;45528;52.102;5.242;2022-09-27T00:41:43;99312.0;;;16.89;62.83
32452;BME280;45528;52.102;5.242;2022-09-27T00:45:03;99314.0;;;16.9;62.67
32452;BME280;45528;52.102;5.242;2022-09-27T00:46:47;99317.0;;;16.84;62.62
32452;BME280;45528;52.102;5.242;2022-09-27T00:48:28;99317.0;;;16.86;62.54
32452;BME280;45528;52.102;5.242;2022-09-27T00:50:13;99315.0;;;16.78;62.67
32452;BME280;45528;52.102;5.242;2022-09-27T00:53:39;99312.0;;;16.73;62.8
32452;BME280;45528;52.102;5.242;2022-09-27T00:55:23;99311.0;;;16.68;62.68
32452;BME280;45528;52.102;5.242;2022-09-27T00:57:02;99312.0;;;16.63;62.86
32452;BME280;45528;52.102;5.242;2022-09-27T00:58:43;99311.0;;;16.63;62.83
32452;BME280;45528;52.102;5.242;2022-09-27T01:02:02;99317.0;;;16.63;62.85
32452;BME280;45528;52.102;5.242;2022-09-27T01:03:43;99324.0;;;16.61;62.55
32452;BME280;45528;52.102;5.242;2022-09-27T01:05:26;99322.0;;;16.61;62.75
32452;BME280;45528;52.102;5.242;2022-09-27T01:07:04;99324.0;;;16.53;62.74
32452;BME280;45528;52.102;5.242;2022-09-27T01:10:18;99320.0;;;16.47;62.59
32452;BME280;45528;52.102;5.242;2022-09-27T01:12:00;99319.0;;;16.46;62.58
32452;BME280;45528;52.102;5.242;2022-09-27T01:13:52;99323.0;;;16.41;62.6
32452;BME280;45528;52.102;5.242;2022-09-27T01:15:39;99324.0;;;16.31;62.81
32452;BME280;45528;52.102;5.242;2022-09-27T01:17:30;99332.0;;;16.34;62.99
32452;BME280;45528;52.102;5.242;2022-09-27T01:21:27;99334.0;;;16.37;62.7
32452;BME280;45528;52.102;5.242;2022-09-27T01:23:38;99336.0;;;16.34;62.59
32452;BME280;45528;52.102;5.242;2022-09-27T01:26:44;99337.0;;;16.38;62.86
32452;BME280;45528;52.102;5.242;2022-09-27T01:28:48;99332.0;;;16.41;63.18
32452;BME280;45528;52.102;5.242;2022-09-27T01:30:37;99336.0;;;16.43;63.02
32452;BME280;45528;52.102;5.242;2022-09-27T01:32:21;99336.0;;;16.48;63.1
32452;BME280;45528;52.102;5.242;2022-09-27T01:34:08;99337.0;;;16.5;63.01
32452;BME280;45528;52.102;5.242;2022-09-27T01:37:53;99332.0;;;16.5;63.13
32452;BME280;45528;52.102;5.242;2022-09-27T01:39:45;99333.0;;;16.53;62.9
32452;BME280;45528;52.102;5.242;2022-09-27T01:41:33;99337.0;;;16.59;62.91
32452;BME280;45528;52.102;5.242;2022-09-27T01:43:14;99338.0;;;16.5;63.15
32452;BME280;45528;52.102;5.242;2022-09-27T01:45:01;99340.0;;;16.56;63.2
32452;BME280;45528;52.102;5.242;2022-09-27T01:46:41;99352.0;;;16.56;63.07
32452;BME280;45528;52.102;5.242;2022-09-27T01:50:10;99352.0;;;16.63;62.89
32452;BME280;45528;52.102;5.242;2022-09-27T01:51:51;99337.0;;;16.53;63.3
32452;BME280;45528;52.102;5.242;2022-09-27T01:53:35;99335.0;;;16.61;63.32
32452;BME280;45528;52.102;5.242;2022-09-27T01:55:14;99334.0;;;16.59;63.27
32452;BME280;45528;52.102;5.242;2022-09-27T01:58:41;99333.0;;;16.59;63.08
32452;BME280;45528;52.102;5.242;2022-09-27T02:00:20;99331.0;;;16.59;63.12
32452;BME280;45528;52.102;5.242;2022-09-27T02:02:02;99333.0;;;16.57;62.83
32452;BME280;45528;52.102;5.242;2022-09-27T02:03:46;99332.0;;;16.59;62.74
32452;BME280;45528;52.102;5.242;2022-09-27T02:05:27;99332.0;;;16.5;62.72
32452;BME280;45528;52.102;5.242;2022-09-27T02:08:51;99330.0;;;16.47;62.61
32452;BME280;45528;52.102;5.242;2022-09-27T02:10:33;99333.0;;;16.43;62.72
32452;BME280;45528;52.102;5.242;2022-09-27T02:12:13;99333.0;;;16.4;62.7
32452;BME280;45528;52.102;5.242;2022-09-27T02:13:53;99332.0;;;16.41;62.56
32452;BME280;45528;52.102;5.242;2022-09-27T02:17:30;99332.0;;;16.34;62.53
32452;BME280;45528;52.102;5.242;2022-09-27T02:19:21;99333.0;;;16.34;62.37
32452;BME280;45528;52.102;5.242;2022-09-27T02:21:04;99331.0;;;16.3;62.61
32452;BME280;45528;52.102;5.242;2022-09-27T02:22:49;99328.0;;;16.25;62.49
32452;BME280;45528;52.102;5.242;2022-09-27T02:24:36;99338.0;;;16.21;62.45
32452;BME280;45528;52.102;5.242;2022-09-27T02:26:22;99333.0;;;16.13;62.6
32452;BME280;45528;52.102;5.242;2022-09-27T02:29:53;99333.0;;;16.12;62.76
32452;BME280;45528;52.102;5.242;2022-09-27T02:31:34;99335.0;;;16.11;62.77
32452;BME280;45528;52.102;5.242;2022-09-27T02:33:11;99332.0;;;16.06;62.55
32452;BME280;45528;52.102;5.242;2022-09-27T02:34:47;99327.0;;;16.05;62.41
32452;BME280;45528;52.102;5.242;2022-09-27T02:38:04;99324.0;;;16.03;62.17
32452;BME280;45528;52.102;5.242;2022-09-27T02:39:42;99320.0;;;16.0;62.28
32452;BME280;45528;52.102;5.242;2022-09-27T02:41:20;99321.0;;;16.03;62.23
32452;BME280;45528;52.102;5.242;2022-09-27T02:42:57;99316.0;;;15.97;61.99
32452;BME280;45528;52.102;5.242;2022-09-27T02:46:24;99319.0;;;15.96;62.15
32452;BME280;45528;52.102;5.242;2022-09-27T02:48:46;99313.0;;;15.89;62.27
32452;BME280;45528;52.102;5.242;2022-09-27T02:50:39;99313.0;;;15.8;62.15
32452;BME280;45528;52.102;5.242;2022-09-27T02:53:34;99317.0;;;15.81;62.31
32452;BME280;45528;52.102;5.242;2022-09-27T02:55:17;99319.0;;;15.83;62.36
32452;BME280;45528;52.102;5.242;2022-09-27T02:57:13;99318.0;;;15.81;62.18
32452;BME280;45528;52.102;5.242;2022-09-27T02:59:02;99318.0;;;15.77;62.07
32452;BME280;45528;52.102;5.242;2022-09-27T03:00:51;99320.0;;;15.75;62.32
32452;BME280;45528;52.102;5.242;2022-09-27T03:02:32;99318.0;;;15.79;62.29
32452;BME280;45528;52.102;5.242;2022-09-27T03:04:16;99328.0;;;15.74;62.37
32452;BME280;45528;52.102;5.242;2022-09-27T03:07:39;99324.0;;;15.7;62.68
32452;BME280;45528;52.102;5.242;2022-09-27T03:09:17;99325.0;;;15.66;62.63
32452;BME280;45528;52.102;5.242;2022-09-27T03:10:54;99328.0;;;15.77;62.48
32452;BME280;45528;52.102;5.242;2022-09-27T03:12:31;99325.0;;;15.8;62.64
32452;BME280;45528;52.102;5.242;2022-09-27T03:15:44;99324.0;;;15.81;62.9
32452;BME280;45528;52.102;5.242;2022-09-27T03:17:20;99323.0;;;15.84;62.85
32452;BME280;45528;52.102;5.242;2022-09-27T03:18:56;99328.0;;;15.85;62.95
32452;BME280;45528;52.102;5.242;2022-09-27T03:22:10;99325.0;;;15.91;63.14
32452;BME280;45528;52.102;5.242;2022-09-27T03:23:46;99324.0;;;15.95;62.99
32452;BME280;45528;52.102;5.242;2022-09-27T03:25:22;99320.0;;;15.99;62.99
32452;BME280;45528;52.102;5.242;2022-09-27T03:26:58;99319.0;;;15.98;62.92
32452;BME280;45528;52.102;5.242;2022-09-27T03:30:11;99324.0;;;16.07;62.96
32452;BME280;45528;52.102;5.242;2022-09-27T03:31:49;99324.0;;;16.07;63.0
32452;BME280;45528;52.102;5.242;2022-09-27T03:33:25;99330.0;;;16.2;62.67
32452;BME280;45528;52.102;5.242;2022-09-27T03:36:39;99328.0;;;16.23;62.4
32452;BME280;45528;52.102;5.242;2022-09-27T03:38:15;99326.0;;;16.31;62.13
32452;BME280;45528;52.102;5.242;2022-09-27T03:39:52;99325.0;;;16.25;62.2
32452;BME280;45528;52.102;5.242;2022-09-27T03:43:05;99324.0;;;16.21;62.13
32452;BME280;45528;52.102;5.242;2022-09-27T03:44:42;99324.0;;;16.18;62.15
32452;BME280;45528;52.102;5.242;2022-09-27T03:46:18;99317.0;;;16.18;62.32
32452;BME280;45528;52.102;5.242;2022-09-27T03:47:54;99323.0;;;16.29;62.1
32452;BME280;45528;52.102;5.242;2022-09-27T03:51:08;99322.0;;;16.18;62.06
32452;BME280;45528;52.102;5.242;2022-09-27T03:52:45;99326.0;;;16.18;62.23
32452;BME280;45528;52.102;5.242;2022-09-27T03:54:21;99323.0;;;16.11;62.06
32452;BME280;45528;52.102;5.242;2022-09-27T03:57:34;99323.0;;;16.09;62.32
32452;BME280;45528;52.102;5.242;2022-09-27T03:59:10;99330.0;;;16.09;62.32
32452;BME280;45528;52.102;5.242;2022-09-27T04:00:46;99327.0;;;16.06;62.29
32452;BME280;45528;52.102;5.242;2022-09-27T04:03:59;99325.0;;;16.09;62.11
32452;BME280;45528;52.102;5.242;2022-09-27T04:05:35;99325.0;;;16.09;61.92
32452;BME280;45528;52.102;5.242;2022-09-27T04:07:11;99327.0;;;16.03;62.35
32452;BME280;45528;52.102;5.242;2022-09-27T04:08:47;99335.0;;;16.06;62.13
32452;BME280;45528;52.102;5.242;2022-09-27T04:12:00;99337.0;;;16.07;62.12
32452;BME280;45528;52.102;5.242;2022-09-27T04:13:36;99340.0;;;16.12;62.25
32452;BME280;45528;52.102;5.242;2022-09-27T04:15:12;99343.0;;;16.11;62.25
32452;BME280;45528;52.102;5.242;2022-09-27T04:18:24;99340.0;;;16.11;62.48
32452;BME280;45528;52.102;5.242;2022-09-27T04:20:02;99335.0;;;16.12;62.58
32452;BME280;45528;52.102;5.242;2022-09-27T04:21:40;99334.0;;;16.16;62.62
32452;BME280;45528;52.102;5.242;2022-09-27T04:24:56;99335.0;;;16.12;62.58
32452;BME280;45528;52.102;5.242;2022-09-27T04:26:32;99332.0;;;16.18;62.58
32452;BME280;45528;52.102;5.242;2022-09-27T04:28:08;99336.0;;;16.18;62.48
32452;BME280;45528;52.102;5.242;2022-09-27T04:29:45;99339.0;;;16.09;62.34
32452;BME280;45528;52.102;5.242;2022-09-27T04:32:56;99339.0;;;16.09;62.16
32452;BME280;45528;52.102;5.242;2022-09-27T04:37:14;99343.0;;;15.99;62.28
32452;BME280;45528;52.102;5.242;2022-09-27T04:38:50;99347.0;;;15.95;62.5
32452;BME280;45528;52.102;5.242;2022-09-27T04:40:27;99342.0;;;15.91;62.15
32452;BME280;45528;52.102;5.242;2022-09-27T04:43:41;99341.0;;;15.91;62.15
32452;BME280;45528;52.102;5.242;2022-09-27T04:45:18;99348.0;;;15.84;62.16
32452;BME280;45528;52.102;5.242;2022-09-27T04:46:54;99346.0;;;15.84;62.27
32452;BME280;45528;52.102;5.242;2022-09-27T04:48:31;99349.0;;;15.88;61.97
32452;BME280;45528;52.102;5.242;2022-09-27T04:51:44;99353.0;;;15.89;61.98
32452;BME280;45528;52.102;5.242;2022-09-27T04:53:20;99347.0;;;15.84;62.36
32452;BME280;45528;52.102;5.242;2022-09-27T04:54:56;99351.0;;;15.79;62.43
32452;BME280;45528;52.102;5.242;2022-09-27T04:58:08;99342.0;;;15.88;61.87
32452;BME280;45528;52.102;5.242;2022-09-27T04:59:44;99343.0;;;15.87;62.28
32452;BME280;45528;52.102;5.242;2022-09-27T05:01:21;99340.0;;;15.97;61.72
32452;BME280;45528;52.102;5.242;2022-09-27T05:04:33;99340.0;;;15.94;61.6
32452;BME280;45528;52.102;5.242;2022-09-27T05:06:09;99340.0;;;15.94;61.72
32452;BME280;45528;52.102;5.242;2022-09-27T05:07:46;99338.0;;;15.94;61.89
32452;BME280;45528;52.102;5.242;2022-09-27T05:10:58;99332.0;;;15.87;61.72
32452;BME280;45528;52.102;5.242;2022-09-27T05:12:35;99334.0;;;15.91;61.82
32452;BME280;45528;52.102;5.242;2022-09-27T05:14:13;99336.0;;;15.96;61.66
32452;BME280;45528;52.102;5.242;2022-09-27T05:15:49;99343.0;;;15.98;61.5
32452;BME280;45528;52.102;5.242;2022-09-27T05:19:02;99347.0;;;15.97;61.63
32452;BME280;45528;52.102;5.242;2022-09-27T05:20:39;99349.0;;;15.91;61.7
32452;BME280;45528;52.102;5.242;2022-09-27T05:22:15;99350.0;;;15.87;62.02
32452;BME280;45528;52.102;5.242;2022-09-27T05:25:31;99346.0;;;15.87;62.17
32452;BME280;45528;52.102;5.242;2022-09-27T05:27:11;99346.0;;;15.88;62.01
32452;BME280;45528;52.102;5.242;2022-09-27T05:28:48;99351.0;;;15.89;61.99
32452;BME280;45528;52.102;5.242;2022-09-27T05:30:24;99347.0;;;15.85;62.23
32452;BME280;45528;52.102;5.242;2022-09-27T05:33:39;99345.0;;;15.88;62.06
32452;BME280;45528;52.102;5.242;2022-09-27T05:35:17;99348.0;;;15.85;62.06
32452;BME280;45528;52.102;5.242;2022-09-27T05:36:53;99344.0;;;15.84;62.14
32452;BME280;45528;52.102;5.242;2022-09-27T05:40:06;99346.0;;;15.84;62.18
32452;BME280;45528;52.102;5.242;2022-09-27T05:41:44;99347.0;;;15.84;62.27
32452;BME280;45528;52.102;5.242;2022-09-27T05:43:21;99349.0;;;15.82;62.11
32452;BME280;45528;52.102;5.242;2022-09-27T05:46:33;99353.0;;;15.82;62.42
32452;BME280;45528;52.102;5.242;2022-09-27T05:48:12;99355.0;;;15.82;62.16
32452;BME280;45528;52.102;5.242;2022-09-27T05:49:48;99355.0;;;15.82;62.2
32452;BME280;45528;52.102;5.242;2022-09-27T05:51:25;99357.0;;;15.87;62.27
32452;BME280;45528;52.102;5.242;2022-09-27T05:54:39;99357.0;;;15.93;62.15
32452;BME280;45528;52.102;5.242;2022-09-27T05:56:16;99362.0;;;15.98;61.93
32452;BME280;45528;52.102;5.242;2022-09-27T05:57:53;99357.0;;;15.94;62.4
32452;BME280;45528;52.102;5.242;2022-09-27T06:01:07;99355.0;;;16.02;62.2
32452;BME280;45528;52.102;5.242;2022-09-27T06:02:43;99357.0;;;16.07;62.14
32452;BME280;45528;52.102;5.242;2022-09-27T06:04:20;99360.0;;;16.11;61.84
32452;BME280;45528;52.102;5.242;2022-09-27T06:06:00;99361.0;;;16.09;62.07
32452;BME280;45528;52.102;5.242;2022-09-27T06:09:16;99366.0;;;16.11;62.31
32452;BME280;45528;52.102;5.242;2022-09-27T06:10:59;99376.0;;;16.22;62.04
32452;BME280;45528;52.102;5.242;2022-09-27T06:12:36;99380.0;;;16.25;61.95
32452;BME280;45528;52.102;5.242;2022-09-27T06:15:51;99373.0;;;16.25;62.28
32452;BME280;45528;52.102;5.242;2022-09-27T06:17:27;99377.0;;;16.27;62.34
32452;BME280;45528;52.102;5.242;2022-09-27T06:19:03;99378.0;;;16.34;61.76
32452;BME280;45528;52.102;5.242;2022-09-27T06:20:41;99381.0;;;16.21;62.27
32452;BME280;45528;52.102;5.242;2022-09-27T06:23:58;99387.0;;;16.25;62.18
32452;BME280;45528;52.102;5.242;2022-09-27T06:25:35;99390.0;;;16.34;62.04
32452;BME280;45528;52.102;5.242;2022-09-27T06:27:12;99384.0;;;16.37;62.26
32452;BME280;45528;52.102;5.242;2022-09-27T06:30:27;99382.0;;;16.34;62.24
32452;BME280;45528;52.102;5.242;2022-09-27T06:32:03;99382.0;;;16.27;62.75
32452;BME280;45528;52.102;5.242;2022-09-27T06:33:39;99381.0;;;16.27;62.68
32452;BME280;45528;52.102;5.242;2022-09-27T06:35:15;99380.0;;;16.29;62.88
32452;BME280;45528;52.102;5.242;2022-09-27T06:38:28;99378.0;;;16.28;62.87
32452;BME280;45528;52.102;5.242;2022-09-27T06:40:06;99380.0;;;16.31;62.72
32452;BME280;45528;52.102;5.242;2022-09-27T06:41:43;99382.0;;;16.43;62.62
32452;BME280;45528;52.102;5.242;2022-09-27T06:44:56;99385.0;;;16.45;62.41
32452;BME280;45528;52.102;5.242;2022-09-27T06:46:32;99378.0;;;16.5;62.36
32452;BME280;45528;52.102;5.242;2022-09-27T06:48:10;99387.0;;;16.55;62.09
32452;BME280;45528;52.102;5.242;2022-09-27T06:51:25;99387.0;;;16.52;62.29
32452;BME280;45528;52.102;5.242;2022-09-27T06:53:02;99382.0;;;16.52;62.37
32452;BME280;45528;52.102;5.242;2022-09-27T06:54:40;99383.0;;;16.5;62.63
32452;BME280;45528;52.102;5.242;2022-09-27T06:56:16;99385.0;;;16.5;62.71
32452;BME280;45528;52.102;5.242;2022-09-27T07:00:48;99394.0;;;16.45;62.86
32452;BME280;45528;52.102;5.242;2022-09-27T07:02:26;99395.0;;;16.41;63.04
32452;BME280;45528;52.102;5.242;2022-09-27T07:05:41;99402.0;;;16.43;63.0
32452;BME280;45528;52.102;5.242;2022-09-27T07:07:17;99403.0;;;16.5;62.81
32452;BME280;45528;52.102;5.242;2022-09-27T07:08:54;99405.0;;;16.5;62.76
32452;BME280;45528;52.102;5.242;2022-09-27T07:12:12;99405.0;;;16.52;62.75
32452;BME280;45528;52.102;5.242;2022-09-27T07:13:48;99406.0;;;16.59;62.8
32452;BME280;45528;52.102;5.242;2022-09-27T07:15:27;99409.0;;;16.64;62.93
32452;BME280;45528;52.102;5.242;2022-09-27T07:17:03;99411.0;;;16.61;63.25
32452;BME280;45528;52.102;5.242;2022-09-27T07:20:16;99408.0;;;16.64;63.16
32452;BME280;45528;52.102;5.242;2022-09-27T07:21:52;99409.0;;;16.7;63.5
32452;BME280;45528;52.102;5.242;2022-09-27T07:23:28;99412.0;;;16.77;63.42
32452;BME280;45528;52.102;5.242;2022-09-27T07:26:41;99420.0;;;16.84;63.05
32452;BME280;45528;52.102;5.242;2022-09-27T07:28:18;99425.0;;;16.84;63.18
32452;BME280;45528;52.102;5.242;2022-09-27T07:29:55;99434.0;;;16.84;63.21
32452;BME280;45528;52.102;5.242;2022-09-27T07:33:08;99434.0;;;16.86;63.08
32452;BME280;45528;52.102;5.242;2022-09-27T07:34:45;99435.0;;;16.9;63.24
32452;BME280;45528;52.102;5.242;2022-09-27T07:36:21;99431.0;;;16.89;62.91
32452;BME280;45528;52.102;5.242;2022-09-27T07:37:58;99431.0;;;16.91;63.04
32452;BME280;45528;52.102;5.242;2022-09-27T07:41:12;99425.0;;;16.91;63.09
32452;BME280;45528;52.102;5.242;2022-09-27T07:42:53;99427.0;;;16.91;63.32
32452;BME280;45528;52.102;5.242;2022-09-27T07:44:30;99433.0;;;16.93;63.2
32452;BME280;45528;52.102;5.242;2022-09-27T07:47:43;99431.0;;;16.95;63.39
32452;BME280;45528;52.102;5.242;2022-09-27T07:49:19;99435.0;;;17.04;63.21
32452;BME280;45528;52.102;5.242;2022-09-27T07:50:55;99431.0;;;17.04;63.25
32452;BME280;45528;52.102;5.242;2022-09-27T07:54:14;99430.0;;;17.14;63.05
32452;BME280;45528;52.102;5.242;2022-09-27T07:55:52;99432.0;;;17.2;62.73
32452;BME280;45528;52.102;5.242;2022-09-27T07:57:29;99437.0;;;17.13;63.0
32452;BME280;45528;52.102;5.242;2022-09-27T07:59:05;99434.0;;;17.25;62.7
32452;BME280;45528;52.102;5.242;2022-09-27T08:02:19;99437.0;;;17.25;62.77
32452;BME280;45528;52.102;5.242;2022-09-27T08:03:57;99439.0;;;17.21;62.93
32452;BME280;45528;52.102;5.242;2022-09-27T08:05:34;99440.0;;;17.18;63.08
32452;BME280;45528;52.102;5.242;2022-09-27T08:08:46;99440.0;;;17.3;62.53
32452;BME280;45528;52.102;5.242;2022-09-27T08:10:29;99438.0;;;17.36;62.61
32452;BME280;45528;52.102;5.242;2022-09-27T08:12:06;99440.0;;;17.38;62.47
32452;BME280;45528;52.102;5.242;2022-09-27T08:13:42;99434.0;;;17.32;62.5
32452;BME280;45528;52.102;5.242;2022-09-27T08:16:55;99436.0;;;17.37;62.22
32452;BME280;45528;52.102;5.242;2022-09-27T08:18:31;99440.0;;;17.3;62.43
32452;BME280;45528;52.102;5.242;2022-09-27T08:20:08;99440.0;;;17.36;62.43
32452;BME280;45528;52.102;5.242;2022-09-27T08:23:20;99443.0;;;17.36;62.59
32452;BME280;45528;52.102;5.242;2022-09-27T08:24:57;99443.0;;;17.41;62.41
32452;BME280;45528;52.102;5.242;2022-09-27T08:26:33;99443.0;;;17.29;62.46
32452;BME280;45528;52.102;5.242;2022-09-27T08:29:46;99448.0;;;17.25;62.42
32452;BME280;45528;52.102;5.242;2022-09-27T08:31:24;99460.0;;;17.31;62.47
32452;BME280;45528;52.102;5.242;2022-09-27T08:33:02;99460.0;;;17.29;62.46
32452;BME280;45528;52.102;5.242;2022-09-27T08:34:38;99457.0;;;17.18;62.16
32452;BME280;45528;52.102;5.242;2022-09-27T08:37:54;99467.0;;;17.23;61.91
32452;BME280;45528;52.102;5.242;2022-09-27T08:39:30;99471.0;;;17.18;61.77
32452;BME280;45528;52.102;5.242;2022-09-27T08:41:11;99472.0;;;17.06;62.03
32452;BME280;45528;52.102;5.242;2022-09-27T08:42:59;99472.0;;;17.06;62.25
32452;BME280;45528;52.102;5.242;2022-09-27T08:46:37;99475.0;;;17.07;62.31
32452;BME280;45528;52.102;5.242;2022-09-27T08:48:21;99470.0;;;17.04;61.95
32452;BME280;45528;52.102;5.242;2022-09-27T08:50:05;99468.0;;;16.89;62.27
32452;BME280;45528;52.102;5.242;2022-09-27T08:51:57;99459.0;;;16.91;62.16
32452;BME280;45528;52.102;5.242;2022-09-27T08:53:38;99464.0;;;16.86;62.45
32452;BME280;45528;52.102;5.242;2022-09-27T08:57:04;99458.0;;;16.82;62.74
32452;BME280;45528;52.102;5.242;2022-09-27T08:58:49;99466.0;;;16.86;62.15
32452;BME280;45528;52.102;5.242;2022-09-27T09:00:27;99477.0;;;16.86;62.3
32452;BME280;45528;52.102;5.242;2022-09-27T09:02:13;99470.0;;;16.86;62.46
32452;BME280;45528;52.102;5.242;2022-09-27T09:03:53;99467.0;;;16.77;62.64
32452;BME280;45528;52.102;5.242;2022-09-27T09:07:21;99468.0;;;16.75;62.62
32452;BME280;45528;52.102;5.242;2022-09-27T09:09:13;99469.0;;;16.81;62.58
32452;BME280;45528;52.102;5.242;2022-09-27T09:14:01;99467.0;;;16.78;62.41
32452;BME280;45528;52.102;5.242;2022-09-27T09:17:38;99474.0;;;16.73;62.61
32452;BME280;45528;52.102;5.242;2022-09-27T09:19:31;99483.0;;;16.81;62.16
32452;BME280;45528;52.102;5.242;2022-09-27T09:21:25;99480.0;;;16.75;62.2
32452;BME280;45528;52.102;5.242;2022-09-27T09:23:15;99480.0;;;16.66;62.43
32452;BME280;45528;52.102;5.242;2022-09-27T09:25:18;99477.0;;;16.73;62.46
32452;BME280;45528;52.102;5.242;2022-09-27T09:27:02;99476.0;;;16.7;62.39
32452;BME280;45528;52.102;5.242;2022-09-27T09:30:44;99481.0;;;16.77;62.17
32452;BME280;45528;52.102;5.242;2022-09-27T09:32:33;99475.0;;;16.75;62.04
32452;BME280;45528;52.102;5.242;2022-09-27T09:34:18;99477.0;;;16.68;62.21
32452;BME280;45528;52.102;5.242;2022-09-27T09:36:02;99475.0;;;16.72;61.7
32452;BME280;45528;52.102;5.242;2022-09-27T09:37:46;99475.0;;;16.62;62.12
32452;BME280;45528;52.102;5.242;2022-09-27T09:39:27;99475.0;;;16.65;62.47
32452;BME280;45528;52.102;5.242;2022-09-27T09:42:56;99472.0;;;16.68;62.58
32452;BME280;45528;52.102;5.242;2022-09-27T09:44:42;99480.0;;;16.81;62.43
32452;BME280;45528;52.102;5.242;2022-09-27T09:46:24;99481.0;;;16.89;62.15
32452;BME280;45528;52.102;5.242;2022-09-27T09:48:08;99487.0;;;16.95;62.4
32452;BME280;45528;52.102;5.242;2022-09-27T09:49:54;99489.0;;;17.0;62.33
32452;BME280;45528;52.102;5.242;2022-09-27T09:53:27;99492.0;;;17.02;62.27
32452;BME280;45528;52.102;5.242;2022-09-27T09:55:14;99495.0;;;17.03;62.24
32452;BME280;45528;52.102;5.242;2022-09-27T09:56:59;99489.0;;;17.03;62.48
32452;BME280;45528;52.102;5.242;2022-09-27T09:58:42;99497.0;;;17.11;62.46
32452;BME280;45528;52.102;5.242;2022-09-27T10:00:19;99498.0;;;17.07;62.43
32452;BME280;45528;52.102;5.242;2022-09-27T10:03:50;99499.0;;;17.09;62.38
32452;BME280;45528;52.102;5.242;2022-09-27T10:05:27;99505.0;;;17.16;62.26
32452;BME280;45528;52.102;5.242;2022-09-27T10:07:03;99503.0;;;17.16;62.11
32452;BME280;45528;52.102;5.242;2022-09-27T10:08:39;99501.0;;;17.16;62.1
32452;BME280;45528;52.102;5.242;2022-09-27T10:11:55;99503.0;;;17.09;62.23
32452;BME280;45528;52.102;5.242;2022-09-27T10:13:34;99490.0;;;17.02;62.17
32452;BME280;45528;52.102;5.242;2022-09-27T10:15:15;99494.0;;;17.06;62.04
32452;BME280;45528;52.102;5.242;2022-09-27T10:18:35;99492.0;;;17.02;62.33
32452;BME280;45528;52.102;5.242;2022-09-27T10:20:29;99482.0;;;17.02;62.38
32452;BME280;45528;52.102;5.242;2022-09-27T10:22:12;99480.0;;;17.04;62.13
32452;BME280;45528;52.102;5.242;2022-09-27T10:24:09;99478.0;;;17.02;62.45
32452;BME280;45528;52.102;5.242;2022-09-27T10:25:51;99480.0;;;17.05;62.24
32452;BME280;45528;52.102;5.242;2022-09-27T10:27:37;99481.0;;;17.11;62.18
32452;BME280;45528;52.102;5.242;2022-09-27T10:31:01;99490.0;;;17.18;62.34
32452;BME280;45528;52.102;5.242;2022-09-27T10:32:38;99493.0;;;17.16;62.5
32452;BME280;45528;52.102;5.242;2022-09-27T10:34:19;99492.0;;;17.25;62.68
32452;BME280;45528;52.102;5.242;2022-09-27T10:36:00;99493.0;;;17.32;62.32
32452;BME280;45528;52.102;5.242;2022-09-27T10:39:20;99487.0;;;17.45;62.46
32452;BME280;45528;52.102;5.242;2022-09-27T10:41:15;99491.0;;;17.45;62.55
32452;BME280;45528;52.102;5.242;2022-09-27T10:42:52;99494.0;;;17.53;62.02
32452;BME280;45528;52.102;5.242;2022-09-27T10:44:30;99495.0;;;17.56;61.64
32452;BME280;45528;52.102;5.242;2022-09-27T10:47:59;99496.0;;;17.55;62.06
32452;BME280;45528;52.102;5.242;2022-09-27T10:49:38;99498.0;;;17.64;62.18
32452;BME280;45528;52.102;5.242;2022-09-27T10:51:26;99495.0;;;17.68;61.88
32452;BME280;45528;52.102;5.242;2022-09-27T10:53:11;99496.0;;;17.53;61.71
32452;BME280;45528;52.102;5.242;2022-09-27T10:54:53;99494.0;;;17.52;62.04
32452;BME280;45528;52.102;5.242;2022-09-27T10:58:16;99494.0;;;17.46;61.52
32452;BME280;45528;52.102;5.242;2022-09-27T10:59:55;99496.0;;;17.43;61.95
32452;BME280;45528;52.102;5.242;2022-09-27T11:01:38;99497.0;;;17.36;61.76
32452;BME280;45528;52.102;5.242;2022-09-27T11:03:18;99496.0;;;17.36;61.51
32452;BME280;45528;52.102;5.242;2022-09-27T11:06:44;99499.0;;;17.37;61.25
32452;BME280;45528;52.102;5.242;2022-09-27T11:08:27;99495.0;;;17.32;60.72
32452;BME280;45528;52.102;5.242;2022-09-27T11:10:21;99497.0;;;17.34;60.88
32452;BME280;45528;52.102;5.242;2022-09-27T11:12:07;99494.0;;;17.34;60.95
32452;BME280;45528;52.102;5.242;2022-09-27T11:13:57;99495.0;;;17.16;61.05
32452;BME280;45528;52.102;5.242;2022-09-27T11:15:42;99492.0;;;17.12;61.28
32452;BME280;45528;52.102;5.242;2022-09-27T11:19:23;99490.0;;;17.16;61.7
32452;BME280;45528;52.102;5.242;2022-09-27T11:21:10;99489.0;;;17.18;61.71
32452;BME280;45528;52.102;5.242;2022-09-27T11:24:07;99488.0;;;17.2;61.2
32452;BME280;45528;52.102;5.242;2022-09-27T11:25:59;99483.0;;;17.12;61.91